createdAt,value
2018-03-14T00:00:08.521Z,950.71
2018-03-14T00:01:08.536Z,950.67
2018-03-14T00:02:08.550Z,950.68
2018-03-14T00:03:08.571Z,950.74
2018-03-14T00:04:08.580Z,950.73
2018-03-14T00:05:08.593Z,950.79
2018-03-14T00:06:08.609Z,950.81
2018-03-14T00:07:08.673Z,950.83
2018-03-14T00:08:08.637Z,950.83
2018-03-14T00:09:08.651Z,950.89
2018-03-14T00:10:08.666Z,950.83
2018-03-14T00:11:08.681Z,950.82
2018-03-14T00:12:08.696Z,950.84
2018-03-14T00:13:08.710Z,950.9
2018-03-14T00:14:08.727Z,950.84
2018-03-14T00:15:08.741Z,950.84
2018-03-14T00:16:08.754Z,950.86
2018-03-14T00:17:08.766Z,950.83
2018-03-14T00:18:08.781Z,950.93
2018-03-14T00:19:08.798Z,950.94
2018-03-14T00:20:08.811Z,950.98
2018-03-14T00:21:08.827Z,950.94
2018-03-14T00:22:08.843Z,950.98
2018-03-14T00:23:08.857Z,950.97
2018-03-14T00:24:08.872Z,950.99
2018-03-14T00:25:08.938Z,951
2018-03-14T00:26:08.903Z,951.01
2018-03-14T00:27:08.916Z,951.09
2018-03-14T00:28:08.932Z,951.05
2018-03-14T00:29:08.947Z,951.02
2018-03-14T00:30:08.961Z,951.07
2018-03-14T00:31:08.976Z,951.1
2018-03-14T00:32:08.993Z,951.05
2018-03-14T00:33:09.005Z,951.07
2018-03-14T00:34:09.021Z,951.03
2018-03-14T00:35:09.038Z,951.09
2018-03-14T00:36:09.048Z,951.09
2018-03-14T00:37:09.062Z,951.07
2018-03-14T00:38:09.078Z,951.09
2018-03-14T00:39:09.136Z,951.07
2018-03-14T00:40:09.108Z,951.07
2018-03-14T00:41:09.121Z,951.02
2018-03-14T00:42:09.134Z,951.11
2018-03-14T00:43:09.200Z,951.11
2018-03-14T00:44:09.165Z,951.12
2018-03-14T00:45:09.177Z,951.13
2018-03-14T00:46:09.198Z,951.11
2018-03-14T00:47:09.207Z,951.17
2018-03-14T00:48:09.223Z,951.08
2018-03-14T00:49:09.235Z,951.14
2018-03-14T00:50:09.250Z,951.15
2018-03-14T00:51:09.265Z,951.13
2018-03-14T00:52:09.279Z,951.15
2018-03-14T00:53:09.294Z,951.18
2018-03-14T00:54:09.331Z,951.17
2018-03-14T00:55:09.321Z,951.21
2018-03-14T00:56:09.334Z,951.18
2018-03-14T00:57:09.348Z,951.18
2018-03-14T00:58:09.363Z,951.19
2018-03-14T00:59:09.429Z,951.23
2018-03-14T01:00:09.394Z,951.25
2018-03-14T01:01:09.409Z,951.2
2018-03-14T01:02:09.422Z,951.24
2018-03-14T01:03:09.437Z,951.24
2018-03-14T01:04:09.452Z,951.2
2018-03-14T01:05:09.467Z,951.22
2018-03-14T01:06:09.480Z,951.25
2018-03-14T01:07:09.493Z,951.26
2018-03-14T01:08:09.509Z,951.23
2018-03-14T01:09:09.523Z,951.23
2018-03-14T01:10:09.538Z,951.19
2018-03-14T01:11:09.553Z,951.19
2018-03-14T01:12:09.566Z,951.27
2018-03-14T01:13:09.580Z,951.26
2018-03-14T01:14:09.594Z,951.18
2018-03-14T01:15:09.611Z,951.29
2018-03-14T01:16:09.682Z,951.31
2018-03-14T01:17:09.639Z,951.29
2018-03-14T01:18:09.652Z,951.32
2018-03-14T01:19:09.667Z,951.19
2018-03-14T01:20:09.685Z,951.27
2018-03-14T01:21:09.697Z,951.24
2018-03-14T01:22:09.713Z,951.33
2018-03-14T01:23:09.750Z,951.28
2018-03-14T01:24:09.740Z,951.28
2018-03-14T01:25:09.752Z,951.28
2018-03-14T01:26:09.767Z,951.33
2018-03-14T01:27:09.781Z,951.28
2018-03-14T01:28:09.795Z,951.29
2018-03-14T01:29:09.809Z,951.32
2018-03-14T01:30:09.824Z,951.3
2018-03-14T01:31:09.890Z,951.32
2018-03-14T01:32:09.853Z,951.35
2018-03-14T01:33:09.872Z,951.31
2018-03-14T01:34:09.881Z,951.27
2018-03-14T01:35:09.894Z,951.3
2018-03-14T01:36:09.908Z,951.33
2018-03-14T01:37:09.923Z,951.33
2018-03-14T01:38:09.937Z,951.33
2018-03-14T01:39:09.958Z,951.34
2018-03-14T01:40:09.965Z,951.27
2018-03-14T01:41:09.980Z,951.29
2018-03-14T01:42:09.994Z,951.22
2018-03-14T01:43:10.010Z,951.27
2018-03-14T01:44:10.023Z,951.31
2018-03-14T01:45:10.036Z,951.33
2018-03-14T01:46:10.100Z,951.34
2018-03-14T01:47:10.062Z,951.32
2018-03-14T01:48:10.078Z,951.38
2018-03-14T01:49:10.091Z,951.33
2018-03-14T01:50:10.105Z,951.36
2018-03-14T01:51:10.135Z,951.33
2018-03-14T01:52:10.135Z,951.32
2018-03-14T01:53:10.147Z,951.33
2018-03-14T01:54:10.163Z,951.43
2018-03-14T01:55:10.177Z,951.36
2018-03-14T01:56:10.190Z,951.38
2018-03-14T01:57:10.204Z,951.37
2018-03-14T01:58:10.221Z,951.32
2018-03-14T01:59:10.232Z,951.36
2018-03-14T02:00:10.248Z,951.32
2018-03-14T02:01:10.262Z,951.37
2018-03-14T02:02:10.275Z,951.36
2018-03-14T02:03:10.290Z,951.4
2018-03-14T02:04:10.354Z,951.38
2018-03-14T02:05:10.319Z,951.37
2018-03-14T02:06:10.333Z,951.42
2018-03-14T02:07:10.346Z,951.45
2018-03-14T02:08:10.361Z,951.38
2018-03-14T02:09:10.373Z,951.42
2018-03-14T02:10:10.388Z,951.4
2018-03-14T02:11:10.404Z,951.44
2018-03-14T02:12:10.427Z,951.44
2018-03-14T02:13:10.430Z,951.47
2018-03-14T02:14:10.443Z,951.46
2018-03-14T02:15:10.460Z,951.48
2018-03-14T02:16:10.473Z,951.48
2018-03-14T02:17:10.486Z,951.5
2018-03-14T02:18:10.501Z,951.48
2018-03-14T02:19:10.564Z,951.46
2018-03-14T02:20:10.566Z,951.52
2018-03-14T02:21:10.542Z,951.51
2018-03-14T02:22:10.557Z,951.56
2018-03-14T02:23:10.571Z,951.47
2018-03-14T02:24:10.586Z,951.49
2018-03-14T02:25:10.599Z,951.55
2018-03-14T02:26:10.614Z,951.51
2018-03-14T02:27:10.627Z,951.53
2018-03-14T02:28:10.647Z,951.59
2018-03-14T02:29:10.655Z,951.53
2018-03-14T02:30:10.672Z,951.53
2018-03-14T02:31:10.689Z,951.57
2018-03-14T02:32:10.697Z,951.52
2018-03-14T02:33:10.716Z,951.53
2018-03-14T02:34:10.777Z,951.54
2018-03-14T02:35:10.740Z,951.56
2018-03-14T02:36:10.754Z,951.55
2018-03-14T02:37:10.770Z,951.56
2018-03-14T02:38:10.782Z,951.52
2018-03-14T02:39:10.799Z,951.54
2018-03-14T02:40:10.814Z,951.55
2018-03-14T02:41:10.829Z,951.56
2018-03-14T02:42:10.842Z,951.56
2018-03-14T02:43:10.855Z,951.59
2018-03-14T02:44:10.871Z,951.57
2018-03-14T02:45:10.884Z,951.58
2018-03-14T02:46:10.899Z,951.59
2018-03-14T02:47:10.914Z,951.6
2018-03-14T02:48:10.928Z,951.58
2018-03-14T02:49:10.940Z,951.61
2018-03-14T02:50:10.956Z,951.62
2018-03-14T02:51:10.969Z,951.61
2018-03-14T02:52:11.035Z,951.68
2018-03-14T02:53:10.998Z,951.61
2018-03-14T02:54:11.017Z,951.64
2018-03-14T02:55:11.027Z,951.63
2018-03-14T02:56:11.041Z,951.64
2018-03-14T02:57:11.063Z,951.64
2018-03-14T02:58:11.071Z,951.66
2018-03-14T02:59:11.086Z,951.64
2018-03-14T03:00:11.097Z,951.62
2018-03-14T03:01:11.112Z,951.62
2018-03-14T03:02:11.126Z,951.66
2018-03-14T03:03:11.140Z,951.6
2018-03-14T03:04:11.154Z,951.59
2018-03-14T03:05:11.168Z,951.62
2018-03-14T03:06:11.183Z,951.67
2018-03-14T03:07:11.198Z,951.67
2018-03-14T03:08:11.211Z,951.66
2018-03-14T03:09:11.229Z,951.7
2018-03-14T03:10:11.241Z,951.68
2018-03-14T03:11:11.305Z,951.71
2018-03-14T03:12:11.267Z,951.7
2018-03-14T03:13:11.283Z,951.68
2018-03-14T03:14:11.297Z,951.72
2018-03-14T03:15:11.310Z,951.74
2018-03-14T03:16:11.353Z,951.69
2018-03-14T03:17:11.339Z,951.75
2018-03-14T03:18:11.354Z,951.75
2018-03-14T03:19:11.368Z,951.74
2018-03-14T03:20:11.382Z,951.82
2018-03-14T03:21:11.397Z,951.81
2018-03-14T03:22:11.413Z,951.78
2018-03-14T03:23:11.422Z,951.83
2018-03-14T03:24:11.458Z,951.81
2018-03-14T03:25:11.457Z,951.81
2018-03-14T03:26:11.479Z,951.82
2018-03-14T03:27:11.532Z,951.82
2018-03-14T03:28:11.541Z,951.81
2018-03-14T03:29:11.576Z,951.82
2018-03-14T03:30:11.596Z,951.8
2018-03-14T03:31:11.541Z,951.84
2018-03-14T03:32:11.548Z,951.83
2018-03-14T03:33:11.564Z,951.86
2018-03-14T03:34:11.584Z,951.87
2018-03-14T03:35:11.590Z,951.86
2018-03-14T03:36:11.604Z,951.87
2018-03-14T03:37:11.619Z,951.89
2018-03-14T03:38:11.631Z,951.9
2018-03-14T03:39:11.647Z,951.88
2018-03-14T03:40:11.660Z,951.92
2018-03-14T03:41:11.673Z,951.89
2018-03-14T03:42:11.738Z,951.88
2018-03-14T03:43:11.701Z,951.89
2018-03-14T03:44:11.715Z,951.89
2018-03-14T03:45:11.729Z,951.93
2018-03-14T03:46:11.745Z,951.9
2018-03-14T03:47:11.758Z,951.86
2018-03-14T03:48:11.770Z,951.9
2018-03-14T03:49:11.784Z,951.87
2018-03-14T03:50:11.799Z,951.88
2018-03-14T03:51:11.811Z,951.9
2018-03-14T03:52:11.825Z,951.85
2018-03-14T03:53:11.841Z,951.83
2018-03-14T03:54:11.852Z,951.89
2018-03-14T03:55:11.868Z,951.88
2018-03-14T03:56:11.885Z,951.89
2018-03-14T03:57:11.945Z,951.87
2018-03-14T03:58:11.909Z,951.84
2018-03-14T03:59:11.947Z,951.9
2018-03-14T04:00:11.937Z,951.91
2018-03-14T04:01:11.950Z,951.9
2018-03-14T04:02:11.967Z,951.9
2018-03-14T04:03:11.979Z,951.95
2018-03-14T04:04:11.996Z,951.91
2018-03-14T04:05:12.009Z,951.92
2018-03-14T04:06:12.024Z,951.93
2018-03-14T04:07:12.037Z,951.96
2018-03-14T04:08:12.052Z,951.97
2018-03-14T04:09:12.065Z,951.95
2018-03-14T04:10:12.080Z,951.96
2018-03-14T04:11:12.094Z,951.95
2018-03-14T04:12:12.108Z,951.96
2018-03-14T04:13:13.174Z,951.91
2018-03-14T04:14:12.138Z,951.91
2018-03-14T04:15:12.151Z,951.88
2018-03-14T04:16:12.167Z,951.89
2018-03-14T04:17:12.179Z,951.91
2018-03-14T04:18:12.198Z,951.89
2018-03-14T04:19:12.208Z,951.93
2018-03-14T04:20:12.223Z,951.93
2018-03-14T04:21:12.237Z,951.92
2018-03-14T04:22:12.252Z,951.9
2018-03-14T04:23:12.266Z,951.93
2018-03-14T04:24:12.279Z,951.93
2018-03-14T04:25:12.293Z,951.96
2018-03-14T04:26:12.308Z,951.92
2018-03-14T04:27:12.322Z,951.99
2018-03-14T04:28:12.336Z,951.91
2018-03-14T04:29:12.351Z,951.94
2018-03-14T04:30:12.368Z,951.95
2018-03-14T04:31:12.380Z,951.93
2018-03-14T04:32:12.392Z,951.93
2018-03-14T04:33:12.458Z,951.91
2018-03-14T04:34:12.422Z,951.95
2018-03-14T04:35:12.435Z,952.01
2018-03-14T04:36:12.450Z,951.98
2018-03-14T04:37:12.466Z,951.96
2018-03-14T04:38:12.478Z,952.01
2018-03-14T04:39:12.491Z,951.96
2018-03-14T04:40:12.507Z,951.95
2018-03-14T04:41:12.527Z,952.03
2018-03-14T04:42:12.535Z,952.01
2018-03-14T04:43:12.549Z,952
2018-03-14T04:44:12.562Z,952.02
2018-03-14T04:45:12.577Z,952.03
2018-03-14T04:46:12.589Z,952.02
2018-03-14T04:47:12.707Z,952.06
2018-03-14T04:48:12.621Z,952.05
2018-03-14T04:49:12.635Z,952.04
2018-03-14T04:50:12.647Z,952.05
2018-03-14T04:51:12.662Z,952.06
2018-03-14T04:52:12.727Z,952.1
2018-03-14T04:53:12.691Z,952.07
2018-03-14T04:54:12.709Z,952.07
2018-03-14T04:55:12.718Z,952.06
2018-03-14T04:56:12.733Z,952.05
2018-03-14T04:57:12.748Z,952.05
2018-03-14T04:58:12.761Z,952.07
2018-03-14T04:59:12.777Z,952.02
2018-03-14T05:00:12.794Z,952.07
2018-03-14T05:01:12.806Z,952.05
2018-03-14T05:02:12.824Z,952.03
2018-03-14T05:03:12.836Z,952.08
2018-03-14T05:04:12.849Z,952.02
2018-03-14T05:05:12.864Z,952.09
2018-03-14T05:06:12.879Z,952.05
2018-03-14T05:07:12.944Z,952.05
2018-03-14T05:08:12.906Z,952.03
2018-03-14T05:09:12.921Z,952.04
2018-03-14T05:10:12.936Z,952.07
2018-03-14T05:11:12.950Z,952.08
2018-03-14T05:12:12.964Z,952.06
2018-03-14T05:13:12.978Z,952.1
2018-03-14T05:14:13.039Z,952.07
2018-03-14T05:15:13.006Z,952.08
2018-03-14T05:16:13.021Z,952.08
2018-03-14T05:17:13.037Z,952.04
2018-03-14T05:18:13.051Z,952.06
2018-03-14T05:19:13.064Z,952.07
2018-03-14T05:20:13.078Z,952.08
2018-03-14T05:21:13.094Z,952.07
2018-03-14T05:22:13.158Z,952.09
2018-03-14T05:23:13.123Z,952.08
2018-03-14T05:24:13.137Z,952.1
2018-03-14T05:25:13.156Z,952.1
2018-03-14T05:26:13.166Z,952.11
2018-03-14T05:27:13.180Z,952.12
2018-03-14T05:28:13.193Z,952.13
2018-03-14T05:29:13.211Z,952.12
2018-03-14T05:30:13.223Z,952.16
2018-03-14T05:31:13.239Z,952.12
2018-03-14T05:32:13.252Z,952.15
2018-03-14T05:33:13.271Z,952.15
2018-03-14T05:34:13.282Z,952.17
2018-03-14T05:35:13.295Z,952.17
2018-03-14T05:36:13.310Z,952.18
2018-03-14T05:37:13.326Z,952.15
2018-03-14T05:38:13.339Z,952.17
2018-03-14T05:39:13.354Z,952.2
2018-03-14T05:40:13.369Z,952.22
2018-03-14T05:41:13.436Z,952.2
2018-03-14T05:42:13.398Z,952.25
2018-03-14T05:43:13.460Z,952.26
2018-03-14T05:44:13.435Z,952.23
2018-03-14T05:45:13.439Z,952.2
2018-03-14T05:46:13.454Z,952.22
2018-03-14T05:47:13.469Z,952.24
2018-03-14T05:48:13.484Z,952.28
2018-03-14T05:49:13.499Z,952.3
2018-03-14T05:50:13.513Z,952.3
2018-03-14T05:51:13.526Z,952.3
2018-03-14T05:52:13.541Z,952.26
2018-03-14T05:53:13.557Z,952.32
2018-03-14T05:54:13.570Z,952.3
2018-03-14T05:55:13.583Z,952.32
2018-03-14T05:56:13.598Z,952.28
2018-03-14T05:57:13.612Z,952.32
2018-03-14T05:58:13.676Z,952.34
2018-03-14T05:59:13.639Z,952.3
2018-03-14T06:00:13.656Z,952.34
2018-03-14T06:01:13.670Z,952.3
2018-03-14T06:02:13.684Z,952.29
2018-03-14T06:03:13.699Z,952.29
2018-03-14T06:04:13.712Z,952.33
2018-03-14T06:05:13.725Z,952.35
2018-03-14T06:06:13.741Z,952.34
2018-03-14T06:07:13.758Z,952.33
2018-03-14T06:08:13.769Z,952.34
2018-03-14T06:09:13.786Z,952.33
2018-03-14T06:10:13.797Z,952.39
2018-03-14T06:11:13.810Z,952.34
2018-03-14T06:12:13.825Z,952.41
2018-03-14T06:13:13.841Z,952.37
2018-03-14T06:14:13.855Z,952.38
2018-03-14T06:15:13.868Z,952.41
2018-03-14T06:16:13.933Z,952.39
2018-03-14T06:17:13.898Z,952.44
2018-03-14T06:18:13.910Z,952.43
2018-03-14T06:19:13.925Z,952.45
2018-03-14T06:20:13.938Z,952.47
2018-03-14T06:21:13.953Z,952.46
2018-03-14T06:22:13.968Z,952.48
2018-03-14T06:23:13.982Z,952.48
2018-03-14T06:24:13.995Z,952.51
2018-03-14T06:25:14.009Z,952.52
2018-03-14T06:26:14.024Z,952.54
2018-03-14T06:27:14.048Z,952.56
2018-03-14T06:28:14.053Z,952.52
2018-03-14T06:29:14.066Z,952.59
2018-03-14T06:30:14.081Z,952.54
2018-03-14T06:31:14.094Z,952.6
2018-03-14T06:32:14.159Z,952.59
2018-03-14T06:33:14.122Z,952.64
2018-03-14T06:34:14.137Z,952.62
2018-03-14T06:35:14.153Z,952.63
2018-03-14T06:36:14.166Z,952.67
2018-03-14T06:37:14.182Z,952.64
2018-03-14T06:38:14.196Z,952.7
2018-03-14T06:39:14.209Z,952.68
2018-03-14T06:40:14.223Z,952.71
2018-03-14T06:41:14.238Z,952.68
2018-03-14T06:42:14.253Z,952.67
2018-03-14T06:43:14.267Z,952.73
2018-03-14T06:44:14.283Z,952.65
2018-03-14T06:45:14.295Z,952.69
2018-03-14T06:46:14.313Z,952.65
2018-03-14T06:47:14.376Z,952.7
2018-03-14T06:48:14.339Z,952.66
2018-03-14T06:49:14.357Z,952.65
2018-03-14T06:50:14.367Z,952.62
2018-03-14T06:51:14.382Z,952.66
2018-03-14T06:52:14.396Z,952.65
2018-03-14T06:53:14.411Z,952.68
2018-03-14T06:54:14.424Z,952.67
2018-03-14T06:55:14.438Z,952.66
2018-03-14T06:56:14.461Z,952.71
2018-03-14T06:57:14.468Z,952.69
2018-03-14T06:58:14.485Z,952.69
2018-03-14T06:59:14.497Z,952.69
2018-03-14T07:00:14.512Z,952.7
2018-03-14T07:01:14.526Z,952.72
2018-03-14T07:02:14.589Z,952.73
2018-03-14T07:03:14.554Z,952.76
2018-03-14T07:04:14.567Z,952.77
2018-03-14T07:05:14.581Z,952.73
2018-03-14T07:06:14.595Z,952.77
2018-03-14T07:07:14.610Z,952.75
2018-03-14T07:08:14.625Z,952.75
2018-03-14T07:09:14.638Z,952.75
2018-03-14T07:10:14.654Z,952.77
2018-03-14T07:11:14.666Z,952.8
2018-03-14T07:12:14.681Z,952.79
2018-03-14T07:13:14.710Z,952.81
2018-03-14T07:14:14.708Z,952.78
2018-03-14T07:15:14.728Z,952.84
2018-03-14T07:16:14.735Z,952.85
2018-03-14T07:17:14.750Z,952.79
2018-03-14T07:18:14.764Z,952.83
2018-03-14T07:19:14.778Z,952.86
2018-03-14T07:20:14.842Z,952.83
2018-03-14T07:21:14.805Z,952.85
2018-03-14T07:22:14.822Z,952.89
2018-03-14T07:23:14.836Z,952.88
2018-03-14T07:24:14.851Z,952.84
2018-03-14T07:25:14.877Z,952.9
2018-03-14T07:26:14.880Z,952.86
2018-03-14T07:27:14.898Z,952.87
2018-03-14T07:28:14.908Z,952.91
2018-03-14T07:29:14.922Z,952.93
2018-03-14T07:30:14.936Z,952.9
2018-03-14T07:31:14.951Z,952.97
2018-03-14T07:32:14.964Z,952.95
2018-03-14T07:33:14.978Z,952.92
2018-03-14T07:34:14.993Z,952.97
2018-03-14T07:35:15.007Z,952.91
2018-03-14T07:36:15.022Z,952.94
2018-03-14T07:37:15.083Z,952.98
2018-03-14T07:38:15.049Z,952.96
2018-03-14T07:39:15.065Z,952.93
2018-03-14T07:40:15.083Z,952.97
2018-03-14T07:41:15.094Z,953.01
2018-03-14T07:42:15.108Z,952.99
2018-03-14T07:43:15.124Z,952.98
2018-03-14T07:44:15.139Z,953.01
2018-03-14T07:45:15.153Z,952.98
2018-03-14T07:46:15.166Z,952.99
2018-03-14T07:47:15.198Z,952.98
2018-03-14T07:48:15.197Z,953.01
2018-03-14T07:49:15.219Z,952.98
2018-03-14T07:50:15.225Z,953.02
2018-03-14T07:51:15.241Z,952.97
2018-03-14T07:52:15.307Z,952.97
2018-03-14T07:53:15.271Z,952.96
2018-03-14T07:54:15.293Z,952.96
2018-03-14T07:55:15.303Z,952.94
2018-03-14T07:56:15.315Z,952.97
2018-03-14T07:57:15.328Z,953
2018-03-14T07:58:15.343Z,952.96
2018-03-14T07:59:15.357Z,952.98
2018-03-14T08:00:15.379Z,952.99
2018-03-14T08:01:15.384Z,952.97
2018-03-14T08:02:15.399Z,953.03
2018-03-14T08:03:15.414Z,953
2018-03-14T08:04:15.431Z,952.95
2018-03-14T08:05:15.445Z,952.99
2018-03-14T08:06:15.458Z,952.99
2018-03-14T08:07:15.470Z,953.03
2018-03-14T08:08:15.539Z,953.04
2018-03-14T08:09:15.500Z,953.06
2018-03-14T08:10:15.518Z,953.04
2018-03-14T08:11:15.533Z,953.07
2018-03-14T08:12:15.548Z,953.11
2018-03-14T08:13:15.562Z,953.1
2018-03-14T08:14:15.578Z,953.09
2018-03-14T08:15:15.590Z,953.09
2018-03-14T08:16:15.629Z,953.11
2018-03-14T08:17:15.625Z,953.11
2018-03-14T08:18:15.634Z,953.1
2018-03-14T08:19:15.651Z,953.12
2018-03-14T08:20:15.683Z,953.11
2018-03-14T08:21:15.680Z,953.15
2018-03-14T08:22:15.695Z,953.07
2018-03-14T08:23:15.711Z,953.11
2018-03-14T08:24:15.775Z,953.11
2018-03-14T08:25:15.739Z,953.1
2018-03-14T08:26:15.754Z,953.14
2018-03-14T08:27:15.768Z,953.1
2018-03-14T08:28:15.784Z,953.1
2018-03-14T08:29:15.799Z,953.07
2018-03-14T08:30:15.814Z,953.07
2018-03-14T08:31:15.830Z,953.1
2018-03-14T08:32:15.848Z,953.11
2018-03-14T08:33:15.858Z,953.13
2018-03-14T08:34:15.883Z,953.13
2018-03-14T08:35:15.890Z,953.14
2018-03-14T08:36:15.905Z,953.13
2018-03-14T08:37:15.971Z,953.18
2018-03-14T08:38:15.934Z,953.14
2018-03-14T08:39:16.150Z,953.13
2018-03-14T08:40:15.963Z,953.14
2018-03-14T08:41:15.978Z,953.17
2018-03-14T08:42:15.993Z,953.08
2018-03-14T08:43:16.010Z,953.06
2018-03-14T08:44:16.023Z,953.1
2018-03-14T08:45:16.061Z,953.1
2018-03-14T08:46:16.052Z,953.13
2018-03-14T08:47:16.068Z,953.07
2018-03-14T08:48:16.079Z,953.1
2018-03-14T08:49:16.096Z,953.14
2018-03-14T08:50:16.117Z,953.15
2018-03-14T08:51:16.126Z,953.15
2018-03-14T08:52:16.145Z,953.14
2018-03-14T08:53:16.156Z,953.13
2018-03-14T08:54:16.224Z,953.14
2018-03-14T08:55:16.186Z,953.06
2018-03-14T08:56:16.200Z,953.14
2018-03-14T08:57:16.216Z,953.13
2018-03-14T08:58:16.232Z,953.13
2018-03-14T08:59:16.247Z,953.12
2018-03-14T09:00:16.272Z,953.12
2018-03-14T09:01:16.277Z,953.07
2018-03-14T09:02:16.291Z,953.1
2018-03-14T09:03:16.306Z,953.04
2018-03-14T09:04:16.322Z,953.09
2018-03-14T09:05:16.341Z,953.09
2018-03-14T09:06:16.351Z,953.07
2018-03-14T09:07:16.367Z,953.02
2018-03-14T09:08:16.381Z,953.08
2018-03-14T09:09:16.444Z,953.07
2018-03-14T09:10:16.410Z,953.04
2018-03-14T09:11:16.424Z,953.07
2018-03-14T09:12:16.441Z,953.07
2018-03-14T09:13:16.454Z,953.04
2018-03-14T09:14:16.474Z,952.99
2018-03-14T09:15:16.485Z,953.01
2018-03-14T09:16:16.501Z,952.96
2018-03-14T09:17:16.513Z,952.99
2018-03-14T09:18:16.531Z,953.06
2018-03-14T09:19:16.545Z,953
2018-03-14T09:20:16.566Z,952.99
2018-03-14T09:21:16.575Z,953.03
2018-03-14T09:22:16.594Z,953.05
2018-03-14T09:23:16.605Z,953.06
2018-03-14T09:24:16.620Z,953.08
2018-03-14T09:25:16.685Z,953.07
2018-03-14T09:26:16.652Z,953.07
2018-03-14T09:27:16.668Z,953.09
2018-03-14T09:28:16.684Z,953.01
2018-03-14T09:29:16.797Z,952.96
2018-03-14T09:30:16.715Z,952.99
2018-03-14T09:31:16.729Z,952.99
2018-03-14T09:32:16.746Z,952.99
2018-03-14T09:33:16.796Z,953
2018-03-14T09:34:16.777Z,952.98
2018-03-14T09:35:16.792Z,952.96
2018-03-14T09:36:16.831Z,952.99
2018-03-14T09:37:16.825Z,953
2018-03-14T09:38:16.840Z,953
2018-03-14T09:39:16.857Z,952.95
2018-03-14T09:40:16.878Z,952.95
2018-03-14T09:41:16.890Z,952.97
2018-03-14T09:42:16.905Z,952.97
2018-03-14T09:43:16.928Z,953.01
2018-03-14T09:44:17.339Z,953.02
2018-03-14T09:45:16.998Z,953.05
2018-03-14T09:46:16.972Z,953.01
2018-03-14T09:47:17.055Z,953.04
2018-03-14T09:48:17.005Z,953.03
2018-03-14T09:49:17.024Z,953.01
2018-03-14T09:50:17.038Z,953.05
2018-03-14T09:51:17.055Z,953.02
2018-03-14T09:52:17.071Z,953.05
2018-03-14T09:53:17.090Z,953.02
2018-03-14T09:54:17.105Z,953
2018-03-14T09:55:17.123Z,953
2018-03-14T09:56:17.138Z,952.99
2018-03-14T09:57:17.155Z,952.95
2018-03-14T09:58:17.177Z,952.97
2018-03-14T09:59:17.192Z,952.96
2018-03-14T10:00:17.208Z,952.97
2018-03-14T10:01:17.224Z,952.96
2018-03-14T10:02:17.238Z,952.96
2018-03-14T10:03:17.262Z,952.95
2018-03-14T10:04:17.321Z,952.94
2018-03-14T10:05:17.290Z,952.96
2018-03-14T10:06:17.307Z,952.96
2018-03-14T10:07:17.324Z,952.94
2018-03-14T10:08:17.340Z,952.95
2018-03-14T10:09:17.458Z,952.99
2018-03-14T10:10:17.376Z,953
2018-03-14T10:11:17.393Z,953.01
2018-03-14T10:12:17.411Z,952.99
2018-03-14T10:13:17.428Z,952.97
2018-03-14T10:14:17.444Z,952.97
2018-03-14T10:15:17.458Z,953
2018-03-14T10:16:17.476Z,952.98
2018-03-14T10:17:17.493Z,953
2018-03-14T10:18:17.510Z,953
2018-03-14T10:19:17.622Z,952.98
2018-03-14T10:20:17.543Z,952.97
2018-03-14T10:21:17.562Z,952.96
2018-03-14T10:22:17.578Z,952.95
2018-03-14T10:23:17.592Z,952.9
2018-03-14T10:24:17.610Z,952.89
2018-03-14T10:25:17.626Z,952.95
2018-03-14T10:26:17.646Z,952.93
2018-03-14T10:27:17.658Z,952.88
2018-03-14T10:28:17.684Z,952.95
2018-03-14T10:29:17.741Z,952.93
2018-03-14T10:30:17.706Z,952.94
2018-03-14T10:31:17.724Z,952.93
2018-03-14T10:32:17.741Z,952.95
2018-03-14T10:33:17.775Z,952.93
2018-03-14T10:34:17.830Z,952.98
2018-03-14T10:35:17.816Z,952.96
2018-03-14T10:36:17.807Z,952.92
2018-03-14T10:37:17.824Z,952.92
2018-03-14T10:38:17.841Z,952.94
2018-03-14T10:39:17.857Z,952.93
2018-03-14T10:40:17.874Z,952.94
2018-03-14T10:41:17.891Z,952.92
2018-03-14T10:42:17.906Z,952.91
2018-03-14T10:43:17.922Z,952.89
2018-03-14T10:44:17.940Z,952.88
2018-03-14T10:45:17.958Z,952.89
2018-03-14T10:46:17.972Z,952.92
2018-03-14T10:47:17.989Z,952.85
2018-03-14T10:48:18.006Z,952.88
2018-03-14T10:49:18.071Z,952.85
2018-03-14T10:50:18.039Z,952.85
2018-03-14T10:51:18.055Z,952.87
2018-03-14T10:52:18.071Z,952.89
2018-03-14T10:53:18.090Z,952.85
2018-03-14T10:54:18.157Z,952.89
2018-03-14T10:55:18.123Z,952.82
2018-03-14T10:56:18.140Z,952.89
2018-03-14T10:57:18.163Z,952.88
2018-03-14T10:58:18.175Z,952.9
2018-03-14T10:59:18.189Z,952.94
2018-03-14T11:00:18.211Z,952.86
2018-03-14T11:01:18.224Z,952.95
2018-03-14T11:02:18.245Z,952.9
2018-03-14T11:03:18.260Z,952.91
2018-03-14T11:04:18.277Z,952.92
2018-03-14T11:05:18.298Z,952.88
2018-03-14T11:06:18.313Z,952.9
2018-03-14T11:07:18.334Z,952.89
2018-03-14T11:08:18.350Z,952.87
2018-03-14T11:09:18.416Z,952.89
2018-03-14T11:10:18.385Z,952.92
2018-03-14T11:11:18.404Z,952.96
2018-03-14T11:12:18.424Z,952.89
2018-03-14T11:13:18.443Z,952.89
2018-03-14T11:14:18.460Z,952.97
2018-03-14T11:15:18.477Z,952.87
2018-03-14T11:16:18.498Z,952.81
2018-03-14T11:17:18.517Z,952.85
2018-03-14T11:18:18.536Z,952.85
2018-03-14T11:19:18.556Z,952.92
2018-03-14T11:20:18.593Z,952.92
2018-03-14T11:21:18.595Z,952.76
2018-03-14T11:22:18.614Z,952.73
2018-03-14T11:23:18.636Z,952.69
2018-03-14T11:24:18.656Z,952.72
2018-03-14T11:25:18.724Z,952.68
2018-03-14T11:26:18.695Z,952.67
2018-03-14T11:27:18.731Z,952.68
2018-03-14T11:28:18.736Z,952.66
2018-03-14T11:29:18.758Z,952.69
2018-03-14T11:30:18.777Z,952.71
2018-03-14T11:31:18.799Z,952.67
2018-03-14T11:32:18.817Z,952.68
2018-03-14T11:33:18.839Z,952.64
2018-03-14T11:34:18.861Z,952.63
2018-03-14T11:35:18.879Z,952.59
2018-03-14T11:36:18.901Z,952.6
2018-03-14T11:37:18.919Z,952.62
2018-03-14T11:38:18.939Z,952.59
2018-03-14T11:39:18.958Z,952.57
2018-03-14T11:40:18.978Z,952.55
2018-03-14T11:41:18.999Z,952.57
2018-03-14T11:42:19.070Z,952.58
2018-03-14T11:43:19.039Z,952.59
2018-03-14T11:44:19.067Z,952.63
2018-03-14T11:45:19.078Z,952.78
2018-03-14T11:46:19.101Z,952.81
2018-03-14T11:47:19.116Z,952.85
2018-03-14T11:48:19.135Z,952.85
2018-03-14T11:49:19.156Z,952.82
2018-03-14T11:50:19.177Z,952.82
2018-03-14T11:51:19.199Z,952.77
2018-03-14T11:52:19.224Z,952.65
2018-03-14T11:53:19.250Z,952.61
2018-03-14T11:54:19.270Z,952.47
2018-03-14T11:55:19.296Z,952.44
2018-03-14T11:56:19.320Z,952.38
2018-03-14T11:57:19.361Z,952.39
2018-03-14T11:58:19.414Z,952.4
2018-03-14T11:59:19.389Z,952.37
2018-03-14T12:00:19.411Z,952.37
2018-03-14T12:01:19.435Z,952.35
2018-03-14T12:02:19.463Z,952.34
2018-03-14T12:03:19.586Z,952.32
2018-03-14T12:04:19.513Z,952.32
2018-03-14T12:05:19.534Z,952.32
2018-03-14T12:06:19.557Z,952.29
2018-03-14T12:07:19.783Z,952.53
2018-03-14T12:08:19.604Z,952.72
2018-03-14T12:09:19.626Z,952.69
2018-03-14T12:10:19.685Z,952.68
2018-03-14T12:11:19.681Z,952.71
2018-03-14T12:12:19.700Z,952.69
2018-03-14T12:13:19.774Z,952.66
2018-03-14T12:14:19.756Z,952.66
2018-03-14T12:15:19.773Z,952.6
2018-03-14T12:16:19.799Z,952.61
2018-03-14T12:17:19.833Z,952.6
2018-03-14T12:18:19.852Z,952.63
2018-03-14T12:19:19.876Z,952.57
2018-03-14T12:20:19.905Z,952.18
2018-03-14T12:21:19.956Z,952.16
2018-03-14T12:22:19.961Z,952.22
2018-03-14T12:23:19.988Z,952.08
2018-03-14T12:24:20.016Z,952.1
2018-03-14T12:25:20.045Z,952.08
2018-03-14T12:26:20.087Z,952.05
2018-03-14T12:27:20.098Z,952.13
2018-03-14T12:28:20.122Z,952.34
2018-03-14T12:29:20.201Z,952.4
2018-03-14T12:30:20.176Z,952.11
2018-03-14T12:31:20.203Z,952.02